Terminal Aerodrome Forecast
Issued by NWS

Home | Current Version | Previous Version | Text Only | Print | Product List | Glossary On
Versions: 1 2 3 4 5 6 7 8 9 10 11 12 13
000
FTUS45 KABQ 200500
TAFSAF
TAF
KSAF 200531Z 2006/2106 24006KT P6SM VCSH FEW040 OVC080
      TEMPO 2006/2008 -RA FEW030 BKN060
     FM200900 29007KT P6SM SCT040 OVC060
     FM201400 34006KT P6SM SCT050 BKN070
     FM201900 32012G21KT P6SM VCSH SCT060 BKN080=

USA.gov is the U.S. government's official web portal to all federal, state and local government web resources and services.